sensor_id;sensor_type;location;lat;lon;timestamp;P1;durP1;ratioP1;P2;durP2;ratioP2
24631;SDS011;59977;48.782;9.190;2023-11-19T00:02:18;3.83;;;2.10;;
24631;SDS011;59977;48.782;9.190;2023-11-19T00:04:44;2.80;;;2.05;;
24631;SDS011;59977;48.782;9.190;2023-11-19T00:07:10;6.40;;;2.88;;
24631;SDS011;59977;48.782;9.190;2023-11-19T00:09:38;30.40;;;17.90;;
24631;SDS011;59977;48.782;9.190;2023-11-19T00:12:04;6.22;;;3.80;;
24631;SDS011;59977;48.782;9.190;2023-11-19T00:14:31;5.60;;;3.28;;
24631;SDS011;59977;48.782;9.190;2023-11-19T00:16:57;8.57;;;3.55;;
24631;SDS011;59977;48.782;9.190;2023-11-19T00:19:22;5.03;;;2.70;;
24631;SDS011;59977;48.782;9.190;2023-11-19T00:21:48;7.05;;;3.20;;
24631;SDS011;59977;48.782;9.190;2023-11-19T00:24:14;4.07;;;2.22;;
24631;SDS011;59977;48.782;9.190;2023-11-19T00:26:43;12.00;;;4.28;;
24631;SDS011;59977;48.782;9.190;2023-11-19T00:29:08;10.38;;;3.53;;
24631;SDS011;59977;48.782;9.190;2023-11-19T00:31:35;6.43;;;2.72;;
24631;SDS011;59977;48.782;9.190;2023-11-19T00:34:01;5.93;;;2.78;;
24631;SDS011;59977;48.782;9.190;2023-11-19T00:36:27;13.93;;;5.28;;
24631;SDS011;59977;48.782;9.190;2023-11-19T00:38:53;5.18;;;3.13;;
24631;SDS011;59977;48.782;9.190;2023-11-19T00:41:19;7.35;;;2.30;;
24631;SDS011;59977;48.782;9.190;2023-11-19T00:43:45;4.55;;;2.17;;
24631;SDS011;59977;48.782;9.190;2023-11-19T00:46:11;7.35;;;3.10;;
24631;SDS011;59977;48.782;9.190;2023-11-19T00:48:38;7.88;;;3.10;;
24631;SDS011;59977;48.782;9.190;2023-11-19T00:51:04;6.15;;;2.38;;
24631;SDS011;59977;48.782;9.190;2023-11-19T00:53:30;5.00;;;2.40;;
24631;SDS011;59977;48.782;9.190;2023-11-19T00:55:57;11.18;;;3.50;;
24631;SDS011;59977;48.782;9.190;2023-11-19T00:58:23;6.60;;;2.88;;
24631;SDS011;59977;48.782;9.190;2023-11-19T01:00:48;4.70;;;2.70;;
24631;SDS011;59977;48.782;9.190;2023-11-19T01:03:14;6.03;;;2.95;;
24631;SDS011;59977;48.782;9.190;2023-11-19T01:05:43;9.82;;;3.53;;
24631;SDS011;59977;48.782;9.190;2023-11-19T01:08:11;7.82;;;2.95;;
24631;SDS011;59977;48.782;9.190;2023-11-19T01:10:37;6.22;;;2.97;;
24631;SDS011;59977;48.782;9.190;2023-11-19T01:13:02;8.90;;;3.30;;
24631;SDS011;59977;48.782;9.190;2023-11-19T01:15:30;8.48;;;3.03;;
24631;SDS011;59977;48.782;9.190;2023-11-19T01:17:56;7.05;;;3.55;;
24631;SDS011;59977;48.782;9.190;2023-11-19T01:20:22;8.02;;;2.80;;
24631;SDS011;59977;48.782;9.190;2023-11-19T01:22:48;6.85;;;2.78;;
24631;SDS011;59977;48.782;9.190;2023-11-19T01:25:14;6.30;;;2.47;;
24631;SDS011;59977;48.782;9.190;2023-11-19T01:27:40;5.60;;;2.58;;
24631;SDS011;59977;48.782;9.190;2023-11-19T01:30:05;6.47;;;3.47;;
24631;SDS011;59977;48.782;9.190;2023-11-19T01:32:34;8.52;;;3.20;;
24631;SDS011;59977;48.782;9.190;2023-11-19T01:35:01;4.93;;;2.92;;
24631;SDS011;59977;48.782;9.190;2023-11-19T01:37:29;10.15;;;3.85;;
24631;SDS011;59977;48.782;9.190;2023-11-19T01:39:54;8.55;;;3.47;;
24631;SDS011;59977;48.782;9.190;2023-11-19T01:42:20;9.10;;;3.50;;
24631;SDS011;59977;48.782;9.190;2023-11-19T01:44:58;10.75;;;4.25;;
24631;SDS011;59977;48.782;9.190;2023-11-19T01:47:25;10.23;;;3.45;;
24631;SDS011;59977;48.782;9.190;2023-11-19T01:49:51;7.20;;;3.50;;
24631;SDS011;59977;48.782;9.190;2023-11-19T01:52:17;7.47;;;3.50;;
24631;SDS011;59977;48.782;9.190;2023-11-19T01:54:43;8.82;;;2.95;;
24631;SDS011;59977;48.782;9.190;2023-11-19T01:57:10;11.88;;;4.60;;
24631;SDS011;59977;48.782;9.190;2023-11-19T01:59:36;6.47;;;3.58;;
24631;SDS011;59977;48.782;9.190;2023-11-19T02:02:03;5.43;;;3.08;;
24631;SDS011;59977;48.782;9.190;2023-11-19T02:04:30;6.90;;;3.53;;
24631;SDS011;59977;48.782;9.190;2023-11-19T02:06:56;11.90;;;4.00;;
24631;SDS011;59977;48.782;9.190;2023-11-19T02:09:24;9.80;;;4.25;;
24631;SDS011;59977;48.782;9.190;2023-11-19T02:11:50;6.93;;;3.00;;
24631;SDS011;59977;48.782;9.190;2023-11-19T02:14:17;6.78;;;2.60;;
24631;SDS011;59977;48.782;9.190;2023-11-19T02:16:43;8.15;;;3.13;;
24631;SDS011;59977;48.782;9.190;2023-11-19T02:19:09;7.95;;;3.58;;
24631;SDS011;59977;48.782;9.190;2023-11-19T02:21:36;11.18;;;3.00;;
24631;SDS011;59977;48.782;9.190;2023-11-19T02:24:06;4.97;;;2.50;;
24631;SDS011;59977;48.782;9.190;2023-11-19T02:26:41;4.55;;;2.05;;
24631;SDS011;59977;48.782;9.190;2023-11-19T02:29:11;4.43;;;2.20;;
24631;SDS011;59977;48.782;9.190;2023-11-19T02:31:38;1.98;;;1.48;;
24631;SDS011;59977;48.782;9.190;2023-11-19T02:34:03;4.63;;;2.00;;
24631;SDS011;59977;48.782;9.190;2023-11-19T02:36:30;6.25;;;2.50;;
24631;SDS011;59977;48.782;9.190;2023-11-19T02:38:57;5.60;;;2.00;;
24631;SDS011;59977;48.782;9.190;2023-11-19T02:41:23;6.07;;;3.15;;
24631;SDS011;59977;48.782;9.190;2023-11-19T02:43:49;7.85;;;3.03;;
24631;SDS011;59977;48.782;9.190;2023-11-19T02:46:14;5.05;;;2.65;;
24631;SDS011;59977;48.782;9.190;2023-11-19T02:48:42;4.82;;;2.83;;
24631;SDS011;59977;48.782;9.190;2023-11-19T02:51:09;15.77;;;3.35;;
24631;SDS011;59977;48.782;9.190;2023-11-19T02:53:35;11.20;;;3.30;;
24631;SDS011;59977;48.782;9.190;2023-11-19T02:56:04;6.93;;;3.30;;
24631;SDS011;59977;48.782;9.190;2023-11-19T02:58:44;4.22;;;2.72;;
24631;SDS011;59977;48.782;9.190;2023-11-19T03:01:11;6.63;;;2.78;;
24631;SDS011;59977;48.782;9.190;2023-11-19T03:03:48;7.13;;;2.70;;
24631;SDS011;59977;48.782;9.190;2023-11-19T03:06:19;4.57;;;2.28;;
24631;SDS011;59977;48.782;9.190;2023-11-19T03:08:46;6.18;;;2.20;;
24631;SDS011;59977;48.782;9.190;2023-11-19T03:11:13;3.00;;;2.10;;
24631;SDS011;59977;48.782;9.190;2023-11-19T03:13:38;6.60;;;2.05;;
24631;SDS011;59977;48.782;9.190;2023-11-19T03:16:04;4.50;;;2.40;;
24631;SDS011;59977;48.782;9.190;2023-11-19T03:18:30;7.82;;;2.80;;
24631;SDS011;59977;48.782;9.190;2023-11-19T03:20:56;4.18;;;2.30;;
24631;SDS011;59977;48.782;9.190;2023-11-19T03:23:23;3.60;;;1.25;;
24631;SDS011;59977;48.782;9.190;2023-11-19T03:25:50;6.50;;;1.85;;
24631;SDS011;59977;48.782;9.190;2023-11-19T03:28:15;3.08;;;1.58;;
24631;SDS011;59977;48.782;9.190;2023-11-19T03:30:41;8.55;;;1.98;;
24631;SDS011;59977;48.782;9.190;2023-11-19T03:33:07;2.65;;;1.20;;
24631;SDS011;59977;48.782;9.190;2023-11-19T03:35:32;2.78;;;1.33;;
24631;SDS011;59977;48.782;9.190;2023-11-19T03:37:58;3.65;;;1.35;;
24631;SDS011;59977;48.782;9.190;2023-11-19T03:40:24;3.00;;;1.20;;
24631;SDS011;59977;48.782;9.190;2023-11-19T03:42:50;8.00;;;1.10;;
24631;SDS011;59977;48.782;9.190;2023-11-19T03:45:16;1.80;;;1.00;;
24631;SDS011;59977;48.782;9.190;2023-11-19T03:47:41;1.02;;;0.70;;
24631;SDS011;59977;48.782;9.190;2023-11-19T03:50:07;4.07;;;0.80;;
24631;SDS011;59977;48.782;9.190;2023-11-19T03:52:34;0.82;;;0.68;;
24631;SDS011;59977;48.782;9.190;2023-11-19T03:55:00;3.70;;;1.73;;
24631;SDS011;59977;48.782;9.190;2023-11-19T03:57:27;1.48;;;1.00;;
24631;SDS011;59977;48.782;9.190;2023-11-19T03:59:53;1.92;;;0.70;;
24631;SDS011;59977;48.782;9.190;2023-11-19T04:02:20;1.15;;;0.70;;
24631;SDS011;59977;48.782;9.190;2023-11-19T04:04:46;0.80;;;0.52;;
24631;SDS011;59977;48.782;9.190;2023-11-19T04:07:13;3.60;;;1.88;;
24631;SDS011;59977;48.782;9.190;2023-11-19T04:09:38;2.00;;;1.27;;
24631;SDS011;59977;48.782;9.190;2023-11-19T04:12:04;1.38;;;0.88;;
24631;SDS011;59977;48.782;9.190;2023-11-19T04:14:31;3.13;;;0.93;;
24631;SDS011;59977;48.782;9.190;2023-11-19T04:16:57;1.95;;;0.88;;
24631;SDS011;59977;48.782;9.190;2023-11-19T04:19:22;1.88;;;0.75;;
24631;SDS011;59977;48.782;9.190;2023-11-19T04:21:49;1.92;;;0.70;;
24631;SDS011;59977;48.782;9.190;2023-11-19T04:24:15;1.88;;;0.73;;
24631;SDS011;59977;48.782;9.190;2023-11-19T04:26:41;4.05;;;0.60;;
24631;SDS011;59977;48.782;9.190;2023-11-19T04:29:11;1.27;;;0.60;;
24631;SDS011;59977;48.782;9.190;2023-11-19T04:31:38;0.85;;;0.43;;
24631;SDS011;59977;48.782;9.190;2023-11-19T04:34:04;0.75;;;0.50;;
24631;SDS011;59977;48.782;9.190;2023-11-19T04:36:31;1.15;;;0.30;;
24631;SDS011;59977;48.782;9.190;2023-11-19T04:38:58;1.10;;;0.45;;
24631;SDS011;59977;48.782;9.190;2023-11-19T04:41:24;2.05;;;0.30;;
24631;SDS011;59977;48.782;9.190;2023-11-19T04:43:50;1.63;;;0.50;;
24631;SDS011;59977;48.782;9.190;2023-11-19T04:46:16;0.43;;;0.30;;
24631;SDS011;59977;48.782;9.190;2023-11-19T04:48:42;2.60;;;0.40;;
24631;SDS011;59977;48.782;9.190;2023-11-19T04:51:08;1.90;;;0.30;;
24631;SDS011;59977;48.782;9.190;2023-11-19T04:53:37;0.28;;;0.22;;
24631;SDS011;59977;48.782;9.190;2023-11-19T04:56:09;1.13;;;0.43;;
24631;SDS011;59977;48.782;9.190;2023-11-19T04:58:35;1.67;;;0.28;;
24631;SDS011;59977;48.782;9.190;2023-11-19T05:01:02;2.85;;;0.40;;
24631;SDS011;59977;48.782;9.190;2023-11-19T05:03:31;0.93;;;0.40;;
24631;SDS011;59977;48.782;9.190;2023-11-19T05:05:57;0.43;;;0.30;;
24631;SDS011;59977;48.782;9.190;2023-11-19T05:08:23;0.20;;;0.20;;
24631;SDS011;59977;48.782;9.190;2023-11-19T05:10:49;3.47;;;0.70;;
24631;SDS011;59977;48.782;9.190;2023-11-19T05:13:15;0.28;;;0.20;;
24631;SDS011;59977;48.782;9.190;2023-11-19T05:15:42;0.40;;;0.30;;
24631;SDS011;59977;48.782;9.190;2023-11-19T05:18:08;1.23;;;0.47;;
24631;SDS011;59977;48.782;9.190;2023-11-19T05:20:34;0.50;;;0.40;;
24631;SDS011;59977;48.782;9.190;2023-11-19T05:23:00;0.30;;;0.30;;
24631;SDS011;59977;48.782;9.190;2023-11-19T05:25:26;0.65;;;0.40;;
24631;SDS011;59977;48.782;9.190;2023-11-19T05:27:52;2.40;;;0.50;;
24631;SDS011;59977;48.782;9.190;2023-11-19T05:30:18;1.25;;;0.30;;
24631;SDS011;59977;48.782;9.190;2023-11-19T05:32:44;0.30;;;0.30;;
24631;SDS011;59977;48.782;9.190;2023-11-19T05:35:10;1.00;;;0.40;;
24631;SDS011;59977;48.782;9.190;2023-11-19T05:37:36;0.40;;;0.30;;
24631;SDS011;59977;48.782;9.190;2023-11-19T05:40:02;1.30;;;0.30;;
24631;SDS011;59977;48.782;9.190;2023-11-19T05:42:31;2.17;;;0.30;;
24631;SDS011;59977;48.782;9.190;2023-11-19T05:44:57;0.32;;;0.30;;
24631;SDS011;59977;48.782;9.190;2023-11-19T05:47:22;2.80;;;0.38;;
24631;SDS011;59977;48.782;9.190;2023-11-19T05:49:48;0.73;;;0.40;;
24631;SDS011;59977;48.782;9.190;2023-11-19T05:52:14;0.93;;;0.40;;
24631;SDS011;59977;48.782;9.190;2023-11-19T05:54:39;0.43;;;0.30;;
24631;SDS011;59977;48.782;9.190;2023-11-19T05:57:05;0.30;;;0.30;;
24631;SDS011;59977;48.782;9.190;2023-11-19T05:59:34;0.77;;;0.30;;
24631;SDS011;59977;48.782;9.190;2023-11-19T06:02:01;1.50;;;0.47;;
24631;SDS011;59977;48.782;9.190;2023-11-19T06:04:27;1.95;;;0.40;;
24631;SDS011;59977;48.782;9.190;2023-11-19T06:06:53;3.30;;;0.38;;
24631;SDS011;59977;48.782;9.190;2023-11-19T06:09:22;2.92;;;0.40;;
24631;SDS011;59977;48.782;9.190;2023-11-19T06:11:49;0.30;;;0.30;;
24631;SDS011;59977;48.782;9.190;2023-11-19T06:14:16;0.40;;;0.40;;
24631;SDS011;59977;48.782;9.190;2023-11-19T06:16:41;0.20;;;0.20;;
24631;SDS011;59977;48.782;9.190;2023-11-19T06:19:07;0.20;;;0.20;;
24631;SDS011;59977;48.782;9.190;2023-11-19T06:21:33;0.40;;;0.40;;
24631;SDS011;59977;48.782;9.190;2023-11-19T06:24:00;0.22;;;0.22;;
24631;SDS011;59977;48.782;9.190;2023-11-19T06:26:26;1.73;;;0.40;;
24631;SDS011;59977;48.782;9.190;2023-11-19T06:28:52;2.03;;;0.22;;
24631;SDS011;59977;48.782;9.190;2023-11-19T06:31:18;0.50;;;0.30;;
24631;SDS011;59977;48.782;9.190;2023-11-19T06:33:44;2.28;;;0.40;;
24631;SDS011;59977;48.782;9.190;2023-11-19T06:36:13;0.30;;;0.30;;
24631;SDS011;59977;48.782;9.190;2023-11-19T06:38:41;2.38;;;0.40;;
24631;SDS011;59977;48.782;9.190;2023-11-19T06:41:07;0.30;;;0.30;;
24631;SDS011;59977;48.782;9.190;2023-11-19T06:43:34;0.40;;;0.40;;
24631;SDS011;59977;48.782;9.190;2023-11-19T06:46:00;1.48;;;0.43;;
24631;SDS011;59977;48.782;9.190;2023-11-19T06:48:26;0.98;;;0.40;;
24631;SDS011;59977;48.782;9.190;2023-11-19T06:50:52;1.15;;;0.60;;
24631;SDS011;59977;48.782;9.190;2023-11-19T06:53:18;0.90;;;0.43;;
24631;SDS011;59977;48.782;9.190;2023-11-19T06:55:44;0.55;;;0.40;;
24631;SDS011;59977;48.782;9.190;2023-11-19T06:58:10;3.35;;;0.60;;
24631;SDS011;59977;48.782;9.190;2023-11-19T07:00:37;3.88;;;0.60;;
24631;SDS011;59977;48.782;9.190;2023-11-19T07:03:04;1.95;;;0.57;;
24631;SDS011;59977;48.782;9.190;2023-11-19T07:05:35;5.57;;;0.77;;
24631;SDS011;59977;48.782;9.190;2023-11-19T07:08:03;1.40;;;0.60;;
24631;SDS011;59977;48.782;9.190;2023-11-19T07:10:29;1.02;;;0.70;;
24631;SDS011;59977;48.782;9.190;2023-11-19T07:12:55;0.52;;;0.52;;
24631;SDS011;59977;48.782;9.190;2023-11-19T07:15:21;5.85;;;0.73;;
24631;SDS011;59977;48.782;9.190;2023-11-19T07:17:46;1.23;;;0.68;;
24631;SDS011;59977;48.782;9.190;2023-11-19T07:20:13;0.88;;;0.40;;
24631;SDS011;59977;48.782;9.190;2023-11-19T07:22:42;1.85;;;0.50;;
24631;SDS011;59977;48.782;9.190;2023-11-19T07:25:10;0.57;;;0.55;;
24631;SDS011;59977;48.782;9.190;2023-11-19T07:27:39;3.50;;;0.70;;
24631;SDS011;59977;48.782;9.190;2023-11-19T07:30:05;1.77;;;0.47;;
24631;SDS011;59977;48.782;9.190;2023-11-19T07:32:34;2.97;;;0.68;;
24631;SDS011;59977;48.782;9.190;2023-11-19T07:35:00;1.48;;;0.82;;
24631;SDS011;59977;48.782;9.190;2023-11-19T07:37:26;2.55;;;0.40;;
24631;SDS011;59977;48.782;9.190;2023-11-19T07:39:51;3.00;;;0.70;;
24631;SDS011;59977;48.782;9.190;2023-11-19T07:42:17;4.80;;;0.60;;
24631;SDS011;59977;48.782;9.190;2023-11-19T07:44:43;2.25;;;0.70;;
24631;SDS011;59977;48.782;9.190;2023-11-19T07:47:09;3.17;;;0.60;;
24631;SDS011;59977;48.782;9.190;2023-11-19T07:49:35;2.92;;;0.70;;
24631;SDS011;59977;48.782;9.190;2023-11-19T07:52:00;4.32;;;0.65;;
24631;SDS011;59977;48.782;9.190;2023-11-19T07:54:28;1.02;;;0.50;;
24631;SDS011;59977;48.782;9.190;2023-11-19T07:56:53;0.40;;;0.40;;
24631;SDS011;59977;48.782;9.190;2023-11-19T07:59:20;1.60;;;0.40;;
24631;SDS011;59977;48.782;9.190;2023-11-19T08:01:46;6.70;;;0.90;;
24631;SDS011;59977;48.782;9.190;2023-11-19T08:04:11;1.85;;;0.60;;
24631;SDS011;59977;48.782;9.190;2023-11-19T08:06:37;1.95;;;0.60;;
24631;SDS011;59977;48.782;9.190;2023-11-19T08:09:02;1.08;;;0.60;;
24631;SDS011;59977;48.782;9.190;2023-11-19T08:11:28;2.60;;;0.50;;
24631;SDS011;59977;48.782;9.190;2023-11-19T08:13:54;1.00;;;0.40;;
24631;SDS011;59977;48.782;9.190;2023-11-19T08:16:20;1.98;;;0.60;;
24631;SDS011;59977;48.782;9.190;2023-11-19T08:18:45;1.33;;;0.70;;
24631;SDS011;59977;48.782;9.190;2023-11-19T08:21:11;2.38;;;0.70;;
24631;SDS011;59977;48.782;9.190;2023-11-19T08:23:37;0.80;;;0.50;;
24631;SDS011;59977;48.782;9.190;2023-11-19T08:26:03;1.23;;;0.75;;
24631;SDS011;59977;48.782;9.190;2023-11-19T08:28:29;0.63;;;0.50;;
24631;SDS011;59977;48.782;9.190;2023-11-19T08:30:56;1.15;;;0.55;;
24631;SDS011;59977;48.782;9.190;2023-11-19T08:33:23;5.72;;;0.70;;
24631;SDS011;59977;48.782;9.190;2023-11-19T08:35:49;1.40;;;0.80;;
24631;SDS011;59977;48.782;9.190;2023-11-19T08:38:15;4.10;;;0.90;;
24631;SDS011;59977;48.782;9.190;2023-11-19T08:40:41;2.55;;;0.50;;
24631;SDS011;59977;48.782;9.190;2023-11-19T08:43:06;3.85;;;0.70;;
24631;SDS011;59977;48.782;9.190;2023-11-19T08:45:32;2.58;;;0.75;;
24631;SDS011;59977;48.782;9.190;2023-11-19T08:47:57;1.02;;;0.50;;
24631;SDS011;59977;48.782;9.190;2023-11-19T08:50:23;3.53;;;0.70;;
24631;SDS011;59977;48.782;9.190;2023-11-19T08:52:49;4.40;;;0.60;;
24631;SDS011;59977;48.782;9.190;2023-11-19T08:55:15;1.55;;;0.77;;
24631;SDS011;59977;48.782;9.190;2023-11-19T08:57:40;1.15;;;0.60;;
24631;SDS011;59977;48.782;9.190;2023-11-19T09:00:07;1.40;;;0.38;;
24631;SDS011;59977;48.782;9.190;2023-11-19T09:02:34;1.80;;;0.60;;
24631;SDS011;59977;48.782;9.190;2023-11-19T09:05:02;1.00;;;0.52;;
24631;SDS011;59977;48.782;9.190;2023-11-19T09:07:28;1.75;;;0.60;;
24631;SDS011;59977;48.782;9.190;2023-11-19T09:09:54;4.32;;;0.60;;
24631;SDS011;59977;48.782;9.190;2023-11-19T09:12:20;0.98;;;0.60;;
24631;SDS011;59977;48.782;9.190;2023-11-19T09:14:45;6.68;;;0.73;;
24631;SDS011;59977;48.782;9.190;2023-11-19T09:17:11;1.35;;;0.50;;
24631;SDS011;59977;48.782;9.190;2023-11-19T09:19:37;4.75;;;0.77;;
24631;SDS011;59977;48.782;9.190;2023-11-19T09:22:03;3.75;;;0.75;;
24631;SDS011;59977;48.782;9.190;2023-11-19T09:24:29;6.20;;;0.80;;
24631;SDS011;59977;48.782;9.190;2023-11-19T09:26:55;3.35;;;0.55;;
24631;SDS011;59977;48.782;9.190;2023-11-19T09:29:21;3.78;;;0.77;;
24631;SDS011;59977;48.782;9.190;2023-11-19T09:31:47;1.83;;;0.82;;
24631;SDS011;59977;48.782;9.190;2023-11-19T09:34:13;2.90;;;0.90;;
24631;SDS011;59977;48.782;9.190;2023-11-19T09:36:39;2.38;;;0.77;;
24631;SDS011;59977;48.782;9.190;2023-11-19T09:39:08;1.02;;;0.63;;
24631;SDS011;59977;48.782;9.190;2023-11-19T09:41:34;1.15;;;0.65;;
24631;SDS011;59977;48.782;9.190;2023-11-19T09:44:00;5.78;;;0.85;;
24631;SDS011;59977;48.782;9.190;2023-11-19T09:46:26;3.15;;;0.75;;
24631;SDS011;59977;48.782;9.190;2023-11-19T09:48:52;5.22;;;0.68;;
24631;SDS011;59977;48.782;9.190;2023-11-19T09:51:19;0.73;;;0.50;;
24631;SDS011;59977;48.782;9.190;2023-11-19T09:53:46;1.70;;;0.60;;
24631;SDS011;59977;48.782;9.190;2023-11-19T09:56:12;2.08;;;0.80;;
24631;SDS011;59977;48.782;9.190;2023-11-19T09:58:38;0.88;;;0.63;;
24631;SDS011;59977;48.782;9.190;2023-11-19T10:01:05;1.20;;;0.80;;
24631;SDS011;59977;48.782;9.190;2023-11-19T10:03:35;4.03;;;0.93;;
24631;SDS011;59977;48.782;9.190;2023-11-19T10:06:07;1.40;;;0.70;;
24631;SDS011;59977;48.782;9.190;2023-11-19T10:08:34;1.13;;;0.70;;
24631;SDS011;59977;48.782;9.190;2023-11-19T10:11:02;2.28;;;0.75;;
24631;SDS011;59977;48.782;9.190;2023-11-19T10:13:28;1.63;;;0.80;;
24631;SDS011;59977;48.782;9.190;2023-11-19T10:15:57;1.38;;;0.70;;
24631;SDS011;59977;48.782;9.190;2023-11-19T10:18:23;2.60;;;0.70;;
24631;SDS011;59977;48.782;9.190;2023-11-19T10:20:51;2.03;;;0.80;;
24631;SDS011;59977;48.782;9.190;2023-11-19T10:23:17;5.53;;;0.82;;
24631;SDS011;59977;48.782;9.190;2023-11-19T10:25:42;1.58;;;0.60;;
24631;SDS011;59977;48.782;9.190;2023-11-19T10:28:08;9.48;;;0.70;;
24631;SDS011;59977;48.782;9.190;2023-11-19T10:30:34;2.88;;;0.85;;
24631;SDS011;59977;48.782;9.190;2023-11-19T10:35:32;2.40;;;0.82;;
24631;SDS011;59977;48.782;9.190;2023-11-19T10:38:20;3.10;;;1.25;;
24631;SDS011;59977;48.782;9.190;2023-11-19T10:40:45;3.03;;;1.40;;
24631;SDS011;59977;48.782;9.190;2023-11-19T10:43:11;1.77;;;0.80;;
24631;SDS011;59977;48.782;9.190;2023-11-19T10:45:38;6.57;;;1.27;;
24631;SDS011;59977;48.782;9.190;2023-11-19T10:48:04;2.10;;;0.93;;
24631;SDS011;59977;48.782;9.190;2023-11-19T10:50:34;2.67;;;1.00;;
24631;SDS011;59977;48.782;9.190;2023-11-19T10:53:01;1.50;;;0.65;;
24631;SDS011;59977;48.782;9.190;2023-11-19T10:55:27;1.67;;;0.90;;
24631;SDS011;59977;48.782;9.190;2023-11-19T10:57:58;3.03;;;0.77;;
24631;SDS011;59977;48.782;9.190;2023-11-19T11:00:44;3.83;;;0.70;;
24631;SDS011;59977;48.782;9.190;2023-11-19T11:03:16;6.18;;;0.90;;
24631;SDS011;59977;48.782;9.190;2023-11-19T11:05:47;4.22;;;0.70;;
24631;SDS011;59977;48.782;9.190;2023-11-19T11:08:14;2.95;;;1.02;;
24631;SDS011;59977;48.782;9.190;2023-11-19T11:10:44;1.60;;;0.50;;
24631;SDS011;59977;48.782;9.190;2023-11-19T11:13:10;1.35;;;0.50;;
24631;SDS011;59977;48.782;9.190;2023-11-19T11:15:37;1.33;;;0.55;;
24631;SDS011;59977;48.782;9.190;2023-11-19T11:18:03;3.00;;;0.80;;
24631;SDS011;59977;48.782;9.190;2023-11-19T11:20:32;3.53;;;0.90;;
24631;SDS011;59977;48.782;9.190;2023-11-19T11:28:35;9.60;;;1.55;;
24631;SDS011;59977;48.782;9.190;2023-11-19T11:33:40;4.03;;;0.85;;
24631;SDS011;59977;48.782;9.190;2023-11-19T11:36:17;3.30;;;0.80;;
24631;SDS011;59977;48.782;9.190;2023-11-19T11:38:45;4.47;;;0.93;;
24631;SDS011;59977;48.782;9.190;2023-11-19T11:41:20;8.00;;;1.08;;
24631;SDS011;59977;48.782;9.190;2023-11-19T11:48:58;1.25;;;0.80;;
24631;SDS011;59977;48.782;9.190;2023-11-19T11:54:10;2.95;;;0.90;;
24631;SDS011;59977;48.782;9.190;2023-11-19T11:56:39;2.92;;;0.80;;
24631;SDS011;59977;48.782;9.190;2023-11-19T11:59:20;6.90;;;0.80;;
24631;SDS011;59977;48.782;9.190;2023-11-19T12:01:59;3.42;;;0.90;;
24631;SDS011;59977;48.782;9.190;2023-11-19T12:04:28;3.25;;;0.73;;
24631;SDS011;59977;48.782;9.190;2023-11-19T12:07:06;4.20;;;1.05;;
24631;SDS011;59977;48.782;9.190;2023-11-19T12:09:32;2.35;;;0.82;;
24631;SDS011;59977;48.782;9.190;2023-11-19T12:20:04;6.95;;;0.70;;
24631;SDS011;59977;48.782;9.190;2023-11-19T12:22:37;2.92;;;0.77;;
24631;SDS011;59977;48.782;9.190;2023-11-19T12:25:04;3.72;;;0.70;;
24631;SDS011;59977;48.782;9.190;2023-11-19T12:27:31;1.88;;;0.60;;
24631;SDS011;59977;48.782;9.190;2023-11-19T12:29:59;0.70;;;0.40;;
24631;SDS011;59977;48.782;9.190;2023-11-19T12:32:25;2.60;;;0.73;;
24631;SDS011;59977;48.782;9.190;2023-11-19T12:34:51;3.67;;;1.00;;
24631;SDS011;59977;48.782;9.190;2023-11-19T12:37:17;2.88;;;0.90;;
24631;SDS011;59977;48.782;9.190;2023-11-19T12:39:43;2.80;;;0.70;;
24631;SDS011;59977;48.782;9.190;2023-11-19T12:42:09;2.03;;;0.80;;
24631;SDS011;59977;48.782;9.190;2023-11-19T12:44:36;3.08;;;0.80;;
24631;SDS011;59977;48.782;9.190;2023-11-19T12:47:03;2.22;;;0.85;;
24631;SDS011;59977;48.782;9.190;2023-11-19T12:49:30;1.85;;;0.80;;
24631;SDS011;59977;48.782;9.190;2023-11-19T12:51:56;4.60;;;0.70;;
24631;SDS011;59977;48.782;9.190;2023-11-19T12:54:31;2.67;;;0.90;;
24631;SDS011;59977;48.782;9.190;2023-11-19T12:56:57;2.83;;;0.88;;
24631;SDS011;59977;48.782;9.190;2023-11-19T12:59:23;2.17;;;0.65;;
24631;SDS011;59977;48.782;9.190;2023-11-19T13:01:57;4.22;;;0.88;;
24631;SDS011;59977;48.782;9.190;2023-11-19T13:04:23;2.20;;;0.98;;
24631;SDS011;59977;48.782;9.190;2023-11-19T13:06:49;2.90;;;0.90;;
24631;SDS011;59977;48.782;9.190;2023-11-19T13:09:22;2.03;;;0.65;;
24631;SDS011;59977;48.782;9.190;2023-11-19T13:11:49;4.90;;;0.98;;
24631;SDS011;59977;48.782;9.190;2023-11-19T13:14:16;2.22;;;0.68;;
24631;SDS011;59977;48.782;9.190;2023-11-19T13:16:42;0.73;;;0.57;;
24631;SDS011;59977;48.782;9.190;2023-11-19T13:19:08;2.30;;;0.90;;
24631;SDS011;59977;48.782;9.190;2023-11-19T13:21:34;2.80;;;0.80;;
24631;SDS011;59977;48.782;9.190;2023-11-19T13:24:00;2.20;;;0.60;;
24631;SDS011;59977;48.782;9.190;2023-11-19T13:26:26;2.33;;;0.90;;
24631;SDS011;59977;48.782;9.190;2023-11-19T13:28:52;1.80;;;0.90;;
24631;SDS011;59977;48.782;9.190;2023-11-19T13:31:18;1.08;;;0.60;;
24631;SDS011;59977;48.782;9.190;2023-11-19T13:33:44;5.72;;;0.90;;
24631;SDS011;59977;48.782;9.190;2023-11-19T13:36:10;3.85;;;0.82;;
24631;SDS011;59977;48.782;9.190;2023-11-19T13:38:37;2.38;;;0.80;;
24631;SDS011;59977;48.782;9.190;2023-11-19T13:41:03;2.78;;;1.00;;
24631;SDS011;59977;48.782;9.190;2023-11-19T13:43:29;2.47;;;0.90;;
24631;SDS011;59977;48.782;9.190;2023-11-19T13:45:56;2.22;;;0.80;;
24631;SDS011;59977;48.782;9.190;2023-11-19T13:48:23;0.88;;;0.60;;
24631;SDS011;59977;48.782;9.190;2023-11-19T13:50:49;1.60;;;0.60;;
24631;SDS011;59977;48.782;9.190;2023-11-19T13:53:16;3.10;;;0.90;;
24631;SDS011;59977;48.782;9.190;2023-11-19T13:55:42;2.60;;;0.80;;
24631;SDS011;59977;48.782;9.190;2023-11-19T13:58:09;4.65;;;1.00;;
24631;SDS011;59977;48.782;9.190;2023-11-19T14:00:35;2.13;;;1.00;;
24631;SDS011;59977;48.782;9.190;2023-11-19T14:03:01;1.70;;;0.70;;
24631;SDS011;59977;48.782;9.190;2023-11-19T14:05:27;2.67;;;0.75;;
24631;SDS011;59977;48.782;9.190;2023-11-19T14:07:53;5.95;;;1.20;;
24631;SDS011;59977;48.782;9.190;2023-11-19T14:10:21;2.13;;;0.90;;
24631;SDS011;59977;48.782;9.190;2023-11-19T14:12:48;4.45;;;0.90;;
24631;SDS011;59977;48.782;9.190;2023-11-19T14:15:14;1.25;;;0.70;;
24631;SDS011;59977;48.782;9.190;2023-11-19T14:17:44;3.65;;;0.80;;
24631;SDS011;59977;48.782;9.190;2023-11-19T14:20:10;3.33;;;0.70;;
24631;SDS011;59977;48.782;9.190;2023-11-19T14:22:40;3.58;;;0.88;;
24631;SDS011;59977;48.782;9.190;2023-11-19T14:25:07;4.97;;;0.68;;
24631;SDS011;59977;48.782;9.190;2023-11-19T14:27:38;1.77;;;0.70;;
24631;SDS011;59977;48.782;9.190;2023-11-19T14:30:05;2.83;;;1.33;;
24631;SDS011;59977;48.782;9.190;2023-11-19T14:32:31;4.57;;;1.63;;
24631;SDS011;59977;48.782;9.190;2023-11-19T14:34:57;1.95;;;1.00;;
24631;SDS011;59977;48.782;9.190;2023-11-19T14:37:23;2.00;;;0.95;;
24631;SDS011;59977;48.782;9.190;2023-11-19T14:39:49;1.90;;;0.88;;
24631;SDS011;59977;48.782;9.190;2023-11-19T14:42:19;2.40;;;0.80;;
24631;SDS011;59977;48.782;9.190;2023-11-19T14:44:45;3.95;;;0.90;;
24631;SDS011;59977;48.782;9.190;2023-11-19T14:47:11;2.65;;;1.02;;
24631;SDS011;59977;48.782;9.190;2023-11-19T14:49:40;6.30;;;1.05;;
24631;SDS011;59977;48.782;9.190;2023-11-19T14:52:06;3.15;;;1.30;;
24631;SDS011;59977;48.782;9.190;2023-11-19T14:54:34;2.45;;;0.95;;
24631;SDS011;59977;48.782;9.190;2023-11-19T14:57:00;3.03;;;1.00;;
24631;SDS011;59977;48.782;9.190;2023-11-19T14:59:28;1.92;;;0.98;;
24631;SDS011;59977;48.782;9.190;2023-11-19T15:01:54;2.92;;;1.02;;
24631;SDS011;59977;48.782;9.190;2023-11-19T15:04:20;2.70;;;0.90;;
24631;SDS011;59977;48.782;9.190;2023-11-19T15:06:45;1.63;;;0.80;;
24631;SDS011;59977;48.782;9.190;2023-11-19T15:09:11;3.03;;;1.60;;
24631;SDS011;59977;48.782;9.190;2023-11-19T15:11:42;2.65;;;1.35;;
24631;SDS011;59977;48.782;9.190;2023-11-19T15:14:08;4.10;;;1.23;;